Time;durP1;ratioP1;P1;durP2;ratioP2;P2;SDS_P1;SDS_P2;PMS_P1;PMS_P2;Temp;Humidity;BMP_temperature;BMP_pressure;BME280_temperature;BME280_humidity;BME280_pressure;Samples;Min_cycle;Max_cycle;Signal;HPM_P1;HPM_P2
2023/03/30 00:01:08;;;;;;;8.90;4.75;;;6.30;45.80;;;;;;4721882;29;115574;-85
2023/03/30 00:03:37;;;;;;;6.80;4.50;;;6.30;45.90;;;;;;4738033;29;119291;-84
2023/03/30 00:06:08;;;;;;;6.80;4.07;;;6.30;45.90;;;;;;4723141;29;118428;-84
2023/03/30 00:08:38;;;;;;;10.23;4.72;;;6.20;45.90;;;;;;4721185;29;115953;-85
2023/03/30 00:11:14;;;;;;;7.07;4.50;;;6.10;46.10;;;;;;4718588;29;115006;-84
2023/03/30 00:13:42;;;;;;;9.07;4.80;;;6.10;46.50;;;;;;4719622;29;115057;-84
2023/03/30 00:16:12;;;;;;;7.68;4.70;;;6.00;46.50;;;;;;4734391;29;116148;-83
2023/03/30 00:18:39;;;;;;;8.25;4.22;;;6.10;46.60;;;;;;4733394;29;115180;-86
2023/03/30 00:21:08;;;;;;;6.82;3.88;;;6.00;46.70;;;;;;4733540;29;115956;-85
2023/03/30 00:23:37;;;;;;;7.53;4.05;;;5.90;46.90;;;;;;4705532;29;115057;-85
2023/03/30 00:26:06;;;;;;;8.55;4.55;;;5.90;47.10;;;;;;4705336;29;114824;-85
2023/03/30 00:28:33;;;;;;;7.18;4.20;;;5.90;47.20;;;;;;4723680;29;117233;-85
2023/03/30 00:31:01;;;;;;;6.18;3.97;;;5.90;47.30;;;;;;4737900;29;115167;-85
2023/03/30 00:33:29;;;;;;;7.93;3.85;;;5.90;47.50;;;;;;4727484;29;114720;-85
2023/03/30 00:36:12;;;;;;;7.85;4.38;;;5.90;47.50;;;;;;4726948;29;114516;-86
2023/03/30 00:38:41;;;;;;;6.22;3.95;;;5.90;47.70;;;;;;4725775;29;115195;-86
2023/03/30 00:41:09;;;;;;;6.70;4.43;;;5.90;48.10;;;;;;4742476;29;115272;-86
2023/03/30 00:44:03;;;;;;;7.25;4.43;;;5.80;48.10;;;;;;4705650;29;114833;-85
2023/03/30 00:46:31;;;;;;;6.50;3.88;;;5.70;48.70;;;;;;4690836;29;115254;-86
2023/03/30 00:49:07;;;;;;;5.38;3.45;;;5.70;48.40;;;;;;4678032;29;116179;-86
2023/03/30 00:51:37;;;;;;;6.10;4.07;;;5.70;48.80;;;;;;4728348;29;113800;-87
2023/03/30 00:54:14;;;;;;;6.70;4.10;;;5.80;48.80;;;;;;4675573;29;115932;-85
2023/03/30 00:56:42;;;;;;;7.78;3.75;;;5.80;48.90;;;;;;4705095;29;114538;-84
2023/03/30 00:59:09;;;;;;;6.60;3.85;;;5.70;48.80;;;;;;4705116;29;115264;-85
2023/03/30 01:01:39;;;;;;;6.43;3.70;;;5.80;48.80;;;;;;4661838;29;115068;-85
2023/03/30 01:04:07;;;;;;;6.82;3.58;;;5.90;48.90;;;;;;4699060;29;114569;-85
2023/03/30 01:06:38;;;;;;;5.93;3.58;;;5.90;48.90;;;;;;4707945;29;118626;-85
2023/03/30 01:09:07;;;;;;;6.55;4.00;;;5.90;48.90;;;;;;4693181;29;115785;-85
2023/03/30 01:11:35;;;;;;;5.53;3.60;;;6.00;49.00;;;;;;4693072;29;115180;-85
2023/03/30 01:14:05;;;;;;;5.88;3.65;;;6.00;49.20;;;;;;4693895;29;114969;-85
2023/03/30 01:17:02;;;;;;;7.22;3.80;;;6.00;49.30;;;;;;4694095;29;114665;-84
2023/03/30 01:19:49;;;;;;;;;;;6.00;49.50;;;;;;4673680;29;115723;-85
2023/03/30 01:22:22;;;;;;;6.15;3.35;;;5.90;48.80;;;;;;4723328;29;116399;-84
2023/03/30 01:25:28;;;;;;;5.18;3.30;;;5.80;49.80;;;;;;4724189;29;114766;-84
2023/03/30 01:28:20;;;;;;;;;;;5.80;50.00;;;;;;4701978;29;117186;-85
2023/03/30 01:31:35;;;;;;;9.00;3.47;;;5.70;49.30;;;;;;4704166;29;115897;-85
2023/03/30 01:34:47;;;;;;;6.97;3.28;;;5.70;50.50;;;;;;4704195;29;114802;-84
2023/03/30 01:37:20;;;;;;;6.40;3.47;;;5.60;50.30;;;;;;4704013;29;114785;-86
2023/03/30 01:40:08;;;;;;;7.13;3.60;;;5.60;50.30;;;;;;4705435;29;119349;-85
2023/03/30 01:43:07;;;;;;;6.40;3.55;;;5.70;50.30;;;;;;4705296;29;115655;-85
2023/03/30 01:46:18;;;;;;;6.55;3.60;;;5.70;50.70;;;;;;4720080;29;114953;-84
2023/03/30 01:49:15;;;;;;;6.25;3.63;;;5.70;50.50;;;;;;4678461;29;114814;-85
2023/03/30 01:52:06;;;;;;;5.85;3.40;;;5.70;50.70;;;;;;4723484;29;114981;-85
2023/03/30 01:54:47;;;;;;;6.32;3.40;;;5.80;50.70;;;;;;4705347;29;115359;-84
2023/03/30 01:57:44;;;;;;;5.80;3.60;;;5.70;50.70;;;;;;4692284;29;115276;-85
2023/03/30 02:00:14;;;;;;;5.65;3.80;;;5.80;50.90;;;;;;4709430;29;114708;-85
2023/03/30 02:02:48;;;;;;;5.35;3.17;;;5.80;50.90;;;;;;4692179;29;116342;-85
2023/03/30 02:05:17;;;;;;;5.65;3.30;;;5.70;50.80;;;;;;4705969;29;115963;-85
2023/03/30 02:07:50;;;;;;;5.95;3.75;;;5.70;50.90;;;;;;4689663;29;116963;-85
2023/03/30 02:10:17;;;;;;;7.75;3.65;;;5.60;51.50;;;;;;4704223;29;114834;-85
2023/03/30 02:12:45;;;;;;;5.65;3.42;;;5.60;51.60;;;;;;4705928;29;114968;-84
2023/03/30 02:15:13;;;;;;;6.57;4.10;;;5.50;51.50;;;;;;4704683;29;115816;-84
2023/03/30 02:17:41;;;;;;;6.82;3.97;;;5.60;51.80;;;;;;4704949;29;116195;-84
2023/03/30 02:20:11;;;;;;;7.28;4.00;;;5.60;51.90;;;;;;4735422;29;114944;-84
2023/03/30 02:22:38;;;;;;;6.28;3.90;;;5.60;51.90;;;;;;4691667;29;114594;-84
2023/03/30 02:25:06;;;;;;;6.32;3.78;;;5.60;52.00;;;;;;4704977;29;115275;-84
2023/03/30 02:27:33;;;;;;;6.22;4.05;;;5.60;51.90;;;;;;4704686;29;117583;-85
2023/03/30 02:30:01;;;;;;;5.63;3.78;;;5.60;52.00;;;;;;4691440;29;114646;-85
2023/03/30 02:32:52;;;;;;;6.30;4.05;;;5.70;52.00;;;;;;4694712;29;114587;-86
2023/03/30 02:35:56;;;;;;;6.32;3.67;;;5.70;52.20;;;;;;4743585;29;114610;-85
2023/03/30 02:38:38;;;;;;;7.53;4.00;;;5.70;52.10;;;;;;4721615;29;117018;-85
2023/03/30 02:41:37;;;;;;;7.57;4.28;;;5.70;52.30;;;;;;4718391;29;114612;-86
2023/03/30 02:44:31;;;;;;;6.47;4.20;;;5.70;52.20;;;;;;4725428;29;115151;-86
2023/03/30 02:47:21;;;;;;;18.75;4.90;;;5.70;52.30;;;;;;4724855;29;115334;-85
2023/03/30 02:50:20;;;;;;;5.80;3.90;;;5.70;52.20;;;;;;4692759;29;117891;-85
2023/03/30 02:53:18;;;;;;;5.30;3.28;;;5.80;52.10;;;;;;4721233;29;115005;-84
2023/03/30 02:56:08;;;;;;;6.15;3.72;;;5.70;52.20;;;;;;4725332;29;114733;-86
2023/03/30 02:59:11;;;;;;;4.50;3.20;;;5.70;52.30;;;;;;4694176;29;117521;-85
2023/03/30 03:01:57;;;;;;;6.95;3.90;;;5.70;52.50;;;;;;4692718;29;115258;-86
2023/03/30 03:04:27;;;;;;;6.53;3.60;;;5.60;52.50;;;;;;4693910;29;115584;-85
2023/03/30 03:07:17;;;;;;;6.60;3.80;;;5.60;52.50;;;;;;4694497;29;115623;-85
2023/03/30 03:09:45;;;;;;;5.38;3.22;;;5.50;52.70;;;;;;4690249;29;115787;-84
2023/03/30 03:12:13;;;;;;;5.63;3.50;;;5.50;52.80;;;;;;4719654;29;114846;-84
2023/03/30 03:14:41;;;;;;;5.50;3.47;;;5.60;52.90;;;;;;4694035;29;114641;-84
2023/03/30 03:17:12;;;;;;;4.60;2.95;;;5.50;53.20;;;;;;4721109;29;114756;-86
2023/03/30 03:19:44;;;;;;;4.93;3.30;;;5.50;53.00;;;;;;4734645;29;115950;-86
2023/03/30 03:22:15;;;;;;;5.05;3.42;;;5.50;53.10;;;;;;4722006;29;117128;-86
2023/03/30 03:24:43;;;;;;;6.80;3.55;;;5.60;53.30;;;;;;4678487;29;114988;-84
2023/03/30 03:27:30;;;;;;;5.47;3.40;;;5.50;53.20;;;;;;4741557;29;114852;-86
2023/03/30 03:30:12;;;;;;;5.25;3.33;;;5.50;53.20;;;;;;4708245;29;116432;-85
2023/03/30 03:32:45;;;;;;;6.03;3.00;;;5.50;53.40;;;;;;4720016;29;114888;-85
2023/03/30 03:35:16;;;;;;;5.07;3.10;;;5.60;53.30;;;;;;4721211;29;115411;-85
2023/03/30 03:37:43;;;;;;;5.68;3.20;;;5.60;53.30;;;;;;4707578;29;114665;-85
2023/03/30 03:40:10;;;;;;;5.55;3.33;;;5.60;53.10;;;;;;4719167;29;115382;-85
2023/03/30 03:42:46;;;;;;;6.07;3.20;;;5.60;53.10;;;;;;4722144;29;115150;-86
2023/03/30 03:45:14;;;;;;;6.78;3.88;;;5.70;53.00;;;;;;4709215;29;114559;-85
2023/03/30 03:47:51;;;;;;;5.05;3.20;;;5.70;52.90;;;;;;4729180;29;115427;-85
2023/03/30 03:50:26;;;;;;;5.65;3.30;;;5.70;52.80;;;;;;4693999;29;119451;-85
2023/03/30 03:52:54;;;;;;;6.97;4.05;;;5.80;52.70;;;;;;4710013;29;114909;-86
2023/03/30 03:55:22;;;;;;;6.13;3.80;;;5.80;52.70;;;;;;4723624;29;114937;-86
2023/03/30 03:57:51;;;;;;;7.25;4.50;;;5.80;52.60;;;;;;4708659;29;114765;-87
2023/03/30 04:00:19;;;;;;;6.07;3.45;;;5.80;52.70;;;;;;4736518;29;115275;-86
2023/03/30 04:02:50;;;;;;;7.05;3.72;;;5.80;52.50;;;;;;4708313;29;115388;-87
2023/03/30 04:05:20;;;;;;;5.38;4.35;;;5.80;52.40;;;;;;4739838;29;114611;-86
2023/03/30 04:07:47;;;;;;;8.68;4.10;;;5.70;52.30;;;;;;4708233;29;115120;-86
2023/03/30 04:10:15;;;;;;;5.45;3.13;;;5.70;52.30;;;;;;4722857;29;116836;-85
2023/03/30 04:12:49;;;;;;;7.30;3.72;;;5.70;52.30;;;;;;4711403;29;117233;-85
2023/03/30 04:16:07;;;;;;;5.85;3.70;;;5.60;52.30;;;;;;4715729;29;114457;-85
2023/03/30 04:19:14;;;;;;;5.57;3.65;;;5.70;52.20;;;;;;4712748;29;115639;-85
2023/03/30 04:21:59;;;;;;;4.97;3.53;;;5.70;52.30;;;;;;4684464;30;115806;-86
2023/03/30 04:24:30;;;;;;;6.60;3.63;;;5.70;52.10;;;;;;4702435;29;114885;-87
2023/03/30 04:27:24;;;;;;;5.97;4.38;;;5.70;52.10;;;;;;4713457;29;115112;-86
2023/03/30 04:29:57;;;;;;;5.68;3.42;;;5.70;52.10;;;;;;4708855;29;114853;-85
2023/03/30 04:32:45;;;;;;;6.35;2.97;;;5.80;52.00;;;;;;4721131;29;114912;-86
2023/03/30 04:35:47;;;;;;;6.50;2.65;;;5.70;51.90;;;;;;4707831;29;115018;-87
2023/03/30 04:38:38;;;;;;;5.18;3.25;;;5.70;51.90;;;;;;4722317;29;114833;-85
2023/03/30 04:41:15;;;;;;;5.75;3.72;;;5.70;52.00;;;;;;4705547;29;114708;-85
2023/03/30 04:44:04;;;;;;;6.37;3.50;;;5.70;51.90;;;;;;4717271;29;115364;-85
2023/03/30 04:46:53;;;;;;;8.43;4.03;;;5.70;52.00;;;;;;4721279;29;114749;-85
2023/03/30 04:49:43;;;;;;;7.95;3.63;;;5.60;51.90;;;;;;4719314;29;114696;-85
2023/03/30 04:52:29;;;;;;;5.18;3.47;;;5.70;52.00;;;;;;4719938;29;114623;-84
2023/03/30 04:55:15;;;;;;;6.95;3.45;;;5.70;52.00;;;;;;4722753;29;115708;-84
2023/03/30 04:57:57;;;;;;;6.35;3.50;;;5.80;51.90;;;;;;4722844;29;114687;-84
2023/03/30 05:00:41;;;;;;;5.60;3.50;;;5.80;51.80;;;;;;4722213;29;114704;-84
2023/03/30 05:03:17;;;;;;;6.35;3.40;;;5.80;51.70;;;;;;4722211;29;114615;-84
2023/03/30 05:06:07;;;;;;;4.82;3.08;;;5.80;51.60;;;;;;4728028;29;116229;-85
2023/03/30 05:08:43;;;;;;;6.70;3.42;;;5.80;51.50;;;;;;4726121;29;115853;-85
2023/03/30 05:11:13;;;;;;;8.00;3.17;;;5.80;51.50;;;;;;4743216;29;118581;-85
2023/03/30 05:13:41;;;;;;;5.50;2.55;;;5.80;51.40;;;;;;4734499;29;114622;-84
2023/03/30 05:16:24;;;;;;;5.97;3.67;;;5.80;51.40;;;;;;4709439;29;115186;-85
2023/03/30 05:19:07;;;;;;;6.78;3.50;;;5.80;51.40;;;;;;4733992;29;114792;-86
2023/03/30 05:21:45;;;;;;;6.03;3.92;;;5.90;51.30;;;;;;4720834;29;114628;-86
2023/03/30 05:24:33;;;;;;;5.43;3.58;;;5.90;51.20;;;;;;4707407;29;114627;-86
2023/03/30 05:27:20;;;;;;;5.65;3.47;;;5.90;51.20;;;;;;4727117;29;115756;-86
2023/03/30 05:30:04;;;;;;;6.93;3.83;;;5.90;51.10;;;;;;4711155;29;115113;-85
2023/03/30 05:32:51;;;;;;;5.18;3.13;;;5.90;51.10;;;;;;4712869;29;114712;-87
2023/03/30 05:35:38;;;;;;;9.02;3.78;;;6.00;50.90;;;;;;4707683;29;115601;-86
2023/03/30 05:38:35;;;;;;;6.75;3.83;;;6.00;50.70;;;;;;4701952;29;118517;-85
2023/03/30 05:41:22;;;;;;;4.90;3.10;;;6.00;50.70;;;;;;4709262;29;116118;-85
2023/03/30 05:44:03;;;;;;;5.95;4.00;;;6.00;50.60;;;;;;4736206;29;114755;-86
2023/03/30 05:46:57;;;;;;;6.73;3.70;;;6.00;50.60;;;;;;4708588;29;114852;-86
2023/03/30 05:49:49;;;;;;;6.50;3.60;;;6.00;50.30;;;;;;4696868;29;115271;-87
2023/03/30 05:52:24;;;;;;;6.30;3.90;;;6.00;50.30;;;;;;4720126;29;114837;-84
2023/03/30 05:55:15;;;;;;;7.70;4.28;;;6.00;50.30;;;;;;4721974;29;114950;-84
2023/03/30 05:58:51;;;;;;;7.32;3.90;;;6.20;50.20;;;;;;4706009;29;115591;-85
2023/03/30 06:01:57;;;;;;;6.38;3.42;;;6.50;49.60;;;;;;4752411;29;114542;-85
2023/03/30 06:04:27;;;;;;;6.32;4.22;;;6.40;49.50;;;;;;4719179;29;115362;-85
2023/03/30 06:06:55;;;;;;;6.72;4.00;;;6.50;49.50;;;;;;4737648;29;114881;-85
2023/03/30 06:09:25;;;;;;;8.65;4.07;;;6.50;49.30;;;;;;4738016;29;114967;-85
2023/03/30 06:11:56;;;;;;;6.63;4.35;;;6.60;49.30;;;;;;4723412;29;116523;-85
2023/03/30 06:14:24;;;;;;;7.88;4.35;;;6.70;49.30;;;;;;4724177;29;115518;-84
2023/03/30 06:17:23;;;;;;;6.50;4.15;;;6.70;48.80;;;;;;4726867;29;114698;-86
2023/03/30 06:19:50;;;;;;;7.35;4.30;;;6.70;49.00;;;;;;4694074;29;115165;-85
2023/03/30 06:22:17;;;;;;;7.30;4.15;;;6.70;49.10;;;;;;4715128;29;115638;-84
2023/03/30 06:25:02;;;;;;;6.45;3.90;;;6.70;48.90;;;;;;4704654;29;116816;-85
2023/03/30 06:27:31;;;;;;;9.30;4.25;;;6.80;48.80;;;;;;4707308;29;116261;-85
2023/03/30 06:29:59;;;;;;;11.02;3.92;;;6.80;48.80;;;;;;4724148;29;114665;-85
2023/03/30 06:32:27;;;;;;;7.93;4.03;;;6.80;48.70;;;;;;4723564;29;115289;-85
2023/03/30 06:35:28;;;;;;;4.55;3.08;;;6.80;48.50;;;;;;4734112;29;115118;-84
2023/03/30 06:37:56;;;;;;;13.07;4.80;;;6.80;48.30;;;;;;4678199;29;116740;-85
2023/03/30 06:40:27;;;;;;;8.32;3.85;;;6.80;48.40;;;;;;4720304;29;115058;-85
2023/03/30 06:42:56;;;;;;;6.90;3.35;;;6.80;48.70;;;;;;4688917;29;120059;-85
2023/03/30 06:45:26;;;;;;;8.48;3.97;;;7.00;48.40;;;;;;4691584;29;117987;-85
2023/03/30 06:47:55;;;;;;;11.20;4.38;;;7.10;48.20;;;;;;4707126;29;114886;-84
2023/03/30 06:50:23;;;;;;;10.02;4.45;;;7.10;48.10;;;;;;4693575;29;114553;-85
2023/03/30 06:53:19;;;;;;;6.45;3.80;;;7.10;48.10;;;;;;4701355;29;116755;-86
2023/03/30 06:55:55;;;;;;;6.45;4.00;;;7.20;48.20;;;;;;4704934;29;114888;-85
2023/03/30 06:58:25;;;;;;;5.57;3.63;;;7.20;48.10;;;;;;4705525;29;116477;-85
2023/03/30 07:00:53;;;;;;;6.25;3.60;;;7.20;48.00;;;;;;4691882;29;114845;-85
2023/03/30 07:03:40;;;;;;;8.85;4.40;;;7.20;47.90;;;;;;4723247;29;118199;-84
2023/03/30 07:06:31;;;;;;;8.60;3.75;;;7.30;48.00;;;;;;4693157;29;115492;-85
2023/03/30 07:09:03;;;;;;;23.38;11.80;;;7.30;48.10;;;;;;4706575;29;115926;-84
2023/03/30 07:11:31;;;;;;;9.85;4.50;;;7.40;48.20;;;;;;4733703;29;114562;-84
2023/03/30 07:14:01;;;;;;;4.97;3.08;;;7.50;48.20;;;;;;4740789;29;115261;-85
2023/03/30 07:16:28;;;;;;;6.03;2.90;;;7.50;47.90;;;;;;4694078;29;117681;-87
2023/03/30 07:18:56;;;;;;;7.07;3.85;;;7.50;47.80;;;;;;4734187;29;115298;-86
2023/03/30 07:21:24;;;;;;;8.10;4.18;;;7.50;47.80;;;;;;4689558;29;114567;-88
2023/03/30 07:23:52;;;;;;;6.97;3.72;;;7.40;48.00;;;;;;4690000;29;119105;-86
2023/03/30 07:26:30;;;;;;;6.65;3.50;;;7.50;48.10;;;;;;4689505;29;117589;-86
2023/03/30 07:29:06;;;;;;;8.73;4.20;;;7.50;48.10;;;;;;4695408;29;114769;-85
2023/03/30 07:31:40;;;;;;;7.85;3.85;;;7.60;48.20;;;;;;4709486;29;116461;-86
2023/03/30 07:34:11;;;;;;;8.52;4.22;;;7.50;48.20;;;;;;4694830;29;119468;-85
2023/03/30 07:36:46;;;;;;;9.00;4.00;;;7.60;48.20;;;;;;4692500;29;115313;-86
2023/03/30 07:39:13;;;;;;;6.43;3.53;;;7.60;48.20;;;;;;4706446;29;116484;-86
2023/03/30 07:41:46;;;;;;;7.18;3.80;;;7.60;47.90;;;;;;4703389;29;114677;-85
2023/03/30 07:44:13;;;;;;;7.53;3.90;;;7.70;48.10;;;;;;4735928;29;119200;-85
2023/03/30 07:47:15;;;;;;;7.13;3.63;;;7.80;48.00;;;;;;4710322;29;114904;-86
2023/03/30 07:49:43;;;;;;;6.93;3.65;;;8.00;47.70;;;;;;4713598;29;114381;-84
2023/03/30 07:52:11;;;;;;;8.95;4.00;;;8.00;47.60;;;;;;4708360;29;115111;-84
2023/03/30 07:54:55;;;;;;;7.07;4.05;;;8.10;47.60;;;;;;4717171;29;115576;-84
2023/03/30 07:57:51;;;;;;;6.30;3.30;;;8.10;47.40;;;;;;4720761;29;115233;-85
2023/03/30 08:00:21;;;;;;;6.30;3.63;;;8.20;47.40;;;;;;4724704;29;115274;-85
2023/03/30 08:03:31;;;;;;;6.43;3.13;;;8.20;47.50;;;;;;4725189;29;114711;-85
2023/03/30 08:06:03;;;;;;;9.20;3.92;;;8.40;47.50;;;;;;4714039;29;115279;-85
2023/03/30 08:08:39;;;;;;;6.15;3.65;;;8.50;47.50;;;;;;4683444;29;116936;-85
2023/03/30 08:11:11;;;;;;;5.90;3.42;;;8.70;47.30;;;;;;4690015;29;115255;-86
2023/03/30 08:13:40;;;;;;;8.23;3.80;;;8.70;47.30;;;;;;4718428;29;114669;-86
2023/03/30 08:16:10;;;;;;;6.78;3.50;;;8.80;47.40;;;;;;4707139;29;117337;-85
2023/03/30 08:18:46;;;;;;;6.97;3.63;;;8.90;47.20;;;;;;4720442;29;115140;-85
2023/03/30 08:21:13;;;;;;;9.20;4.15;;;9.10;47.10;;;;;;4719882;29;115128;-87
2023/03/30 08:23:41;;;;;;;7.72;4.40;;;9.20;47.00;;;;;;4704666;29;116545;-85
2023/03/30 08:26:08;;;;;;;6.10;3.20;;;9.40;46.70;;;;;;4701079;29;116029;-85
2023/03/30 08:28:35;;;;;;;9.27;3.95;;;9.50;46.60;;;;;;4718198;29;114977;-87
2023/03/30 08:31:07;;;;;;;9.35;4.00;;;9.50;46.80;;;;;;4719574;29;114718;-83
2023/03/30 08:33:35;;;;;;;7.95;3.70;;;9.60;47.20;;;;;;4719288;29;114564;-87
2023/03/30 08:36:03;;;;;;;16.60;4.13;;;9.70;47.10;;;;;;4705647;29;119201;-86
2023/03/30 08:38:31;;;;;;;9.80;4.03;;;9.70;47.00;;;;;;4722677;29;115423;-86
2023/03/30 08:41:00;;;;;;;7.65;3.85;;;9.80;46.50;;;;;;4722674;29;114956;-87
2023/03/30 08:44:01;;;;;;;10.55;3.90;;;9.80;46.50;;;;;;4708160;29;115162;-86
2023/03/30 08:46:29;;;;;;;5.90;3.10;;;9.90;46.10;;;;;;4715317;29;115648;-85
2023/03/30 08:48:59;;;;;;;10.43;3.70;;;9.80;46.40;;;;;;4720738;29;114838;-86
2023/03/30 08:51:32;;;;;;;7.00;3.20;;;9.80;46.60;;;;;;4706865;29;114693;-86
2023/03/30 08:54:09;;;;;;;;;;;9.90;46.50;;;;;;4701560;29;114572;-86
2023/03/30 08:56:47;;;;;;;;;;;10.00;46.60;;;;;;4722947;29;116703;-86
2023/03/30 08:59:23;;;;;;;6.43;3.10;;;10.00;46.50;;;;;;4701341;29;117446;-86
2023/03/30 09:01:57;;;;;;;7.18;3.45;;;10.10;46.10;;;;;;4742636;29;114894;-86
2023/03/30 09:04:43;;;;;;;9.65;3.70;;;10.10;46.10;;;;;;4741296;29;116923;-86
2023/03/30 09:07:23;;;;;;;6.55;2.92;;;10.20;45.80;;;;;;4742812;29;116101;-85
2023/03/30 09:09:51;;;;;;;7.57;3.70;;;10.40;45.50;;;;;;4714436;29;117464;-86
2023/03/30 09:12:40;;;;;;;11.43;3.67;;;10.60;45.50;;;;;;4710717;29;114622;-85
2023/03/30 09:15:51;;;;;;;7.63;2.92;;;10.80;44.50;;;;;;4738054;29;115039;-86
2023/03/30 09:18:36;;;;;;;5.55;3.55;;;11.00;44.20;;;;;;4723825;29;116427;-86
2023/03/30 09:21:08;;;;;;;12.77;4.13;;;11.00;44.60;;;;;;4710555;29;116323;-85
2023/03/30 09:23:38;;;;;;;7.88;4.25;;;11.10;44.20;;;;;;4728830;29;115148;-86
2023/03/30 09:26:28;;;;;;;11.45;6.15;;;11.20;44.60;;;;;;4719085;29;114748;-86
2023/03/30 09:29:05;;;;;;;5.50;3.40;;;11.40;44.40;;;;;;4711493;29;118637;-86
2023/03/30 09:32:14;;;;;;;11.18;3.70;;;11.50;43.70;;;;;;4710112;29;114792;-85
2023/03/30 09:34:57;;;;;;;7.18;3.25;;;11.60;43.80;;;;;;4711336;29;114607;-87
2023/03/30 09:37:37;;;;;;;7.07;3.78;;;11.70;43.50;;;;;;4691741;29;114869;-86
2023/03/30 09:41:05;;;;;;;12.23;4.03;;;11.80;42.90;;;;;;4674080;29;117400;-86
2023/03/30 09:43:45;;;;;;;7.82;3.72;;;11.80;42.90;;;;;;4688654;29;114690;-86
2023/03/30 09:46:19;;;;;;;8.63;3.42;;;11.70;43.20;;;;;;4640930;29;116215;-85
2023/03/30 09:48:47;;;;;;;;;;;11.70;43.20;;;;;;4705048;29;114775;-86
2023/03/30 09:51:27;;;;;;;8.07;4.13;;;11.70;43.90;;;;;;4689244;29;115976;-86
2023/03/30 09:54:03;;;;;;;9.27;4.22;;;11.70;43.60;;;;;;4674205;29;117948;-86
2023/03/30 09:56:44;;;;;;;8.65;4.10;;;11.80;43.70;;;;;;4690508;29;114959;-86
2023/03/30 09:59:34;;;;;;;7.13;4.00;;;11.90;43.40;;;;;;4668137;29;116063;-85
2023/03/30 10:02:20;;;;;;;8.68;4.03;;;12.00;43.30;;;;;;4659198;29;116425;-87
2023/03/30 10:04:55;;;;;;;8.57;4.45;;;12.00;43.70;;;;;;4686994;29;115148;-87
2023/03/30 10:07:53;;;;;;;8.15;4.55;;;12.00;43.50;;;;;;4672467;29;114824;-87
2023/03/30 10:10:37;;;;;;;9.27;4.35;;;12.00;43.70;;;;;;4649219;29;115623;-86
2023/03/30 10:13:17;;;;;;;7.18;4.25;;;12.00;43.70;;;;;;4687311;29;115414;-86
2023/03/30 10:15:47;;;;;;;6.68;4.13;;;12.00;44.00;;;;;;4689668;29;115400;-86
2023/03/30 10:18:17;;;;;;;8.82;4.35;;;11.90;44.40;;;;;;4708444;29;116494;-85
2023/03/30 10:20:54;;;;;;;7.88;4.78;;;12.00;44.20;;;;;;4719340;29;115056;-86
2023/03/30 10:23:29;;;;;;;8.52;4.15;;;12.00;44.50;;;;;;4719119;29;115993;-86
2023/03/30 10:26:02;;;;;;;9.88;6.35;;;12.20;44.70;;;;;;4701986;29;114620;-86
2023/03/30 10:28:32;;;;;;;14.80;7.32;;;12.30;44.00;;;;;;4720401;29;114798;-86
2023/03/30 10:31:06;;;;;;;9.27;5.10;;;12.40;44.00;;;;;;4705769;29;114979;-86
2023/03/30 10:33:43;;;;;;;12.30;5.07;;;12.40;44.00;;;;;;4691905;29;115180;-86
2023/03/30 10:36:14;;;;;;;12.57;7.45;;;12.40;43.90;;;;;;4704715;29;114749;-86
2023/03/30 10:38:42;;;;;;;10.80;5.35;;;12.40;44.20;;;;;;4709213;29;116526;-87
2023/03/30 10:41:20;;;;;;;8.30;4.32;;;12.40;44.00;;;;;;4690296;29;114877;-85
2023/03/30 10:43:50;;;;;;;7.65;4.15;;;12.50;43.60;;;;;;4690427;29;118035;-87
2023/03/30 10:46:22;;;;;;;8.20;4.05;;;12.20;43.80;;;;;;4689085;29;114759;-86
2023/03/30 10:49:15;;;;;;;10.20;4.68;;;12.20;44.20;;;;;;4704804;29;114546;-84
2023/03/30 10:52:20;;;;;;;8.07;4.05;;;12.10;44.40;;;;;;4704055;29;115096;-85
2023/03/30 10:56:06;;;;;;;12.32;4.75;;;12.20;44.70;;;;;;4733992;29;115821;-86
2023/03/30 10:59:04;;;;;;;9.95;5.10;;;12.40;44.60;;;;;;4712368;29;115300;-86
2023/03/30 11:02:12;;;;;;;12.52;4.78;;;12.60;44.60;;;;;;4687213;29;114641;-86
2023/03/30 11:04:44;;;;;;;12.57;5.00;;;12.80;44.30;;;;;;4729578;29;114719;-86
2023/03/30 11:07:54;;;;;;;11.40;3.95;;;13.00;44.40;;;;;;4687727;29;116098;-85
2023/03/30 11:10:44;;;;;;;8.65;4.30;;;13.30;44.20;;;;;;4689985;29;117636;-87
2023/03/30 11:13:22;;;;;;;11.10;6.07;;;13.40;44.10;;;;;;4678756;29;115034;-84
2023/03/30 11:15:58;;;;;;;11.50;5.47;;;13.50;43.70;;;;;;4705049;29;114915;-85
2023/03/30 11:18:33;;;;;;;9.50;4.88;;;13.50;43.80;;;;;;4704161;29;117084;-86
2023/03/30 11:21:12;;;;;;;13.48;6.43;;;13.50;43.80;;;;;;4701730;29;117874;-85
2023/03/30 11:23:50;;;;;;;7.75;4.30;;;13.70;44.00;;;;;;4724486;29;114561;-85
2023/03/30 11:27:12;;;;;;;9.48;3.35;;;13.90;44.30;;;;;;4727320;29;115017;-85
2023/03/30 11:30:13;;;;;;;7.05;2.50;;;14.20;44.50;;;;;;4678730;29;116954;-85
2023/03/30 11:32:58;;;;;;;6.05;2.72;;;14.40;44.50;;;;;;4689444;29;115521;-86
2023/03/30 11:35:41;;;;;;;6.80;2.90;;;14.70;44.20;;;;;;4677126;29;114623;-86
2023/03/30 11:38:43;;;;;;;10.82;2.90;;;14.90;44.00;;;;;;4673034;29;114897;-85
2023/03/30 11:41:41;;;;;;;10.90;2.47;;;15.10;43.90;;;;;;4718972;29;115535;-85
2023/03/30 11:44:14;;;;;;;8.52;2.35;;;15.30;44.10;;;;;;4718805;29;118100;-87
2023/03/30 11:47:31;;;;;;;9.23;3.30;;;15.40;44.10;;;;;;4692683;29;115023;-87
2023/03/30 11:50:47;;;;;;;8.13;2.72;;;15.60;44.00;;;;;;4707694;29;118155;-86
2023/03/30 11:53:27;;;;;;;8.63;2.88;;;15.70;43.40;;;;;;4714999;29;116881;-86
2023/03/30 11:56:05;;;;;;;12.07;3.13;;;15.70;43.50;;;;;;4721657;29;117625;-86
2023/03/30 11:58:55;;;;;;;6.25;2.25;;;15.70;43.30;;;;;;4737665;29;114891;-87
2023/03/30 12:01:51;;;;;;;10.85;2.75;;;15.80;43.40;;;;;;4723267;29;114902;-86
2023/03/30 12:04:44;;;;;;;11.50;3.37;;;15.80;43.20;;;;;;4723104;29;116251;-87
2023/03/30 12:07:27;;;;;;;13.40;2.90;;;15.80;43.20;;;;;;4721374;29;114841;-87
2023/03/30 12:10:00;;;;;;;7.33;2.07;;;15.80;43.60;;;;;;4721904;29;115148;-87
2023/03/30 12:12:38;;;;;;;10.82;2.78;;;15.90;43.20;;;;;;4724235;29;114942;-87
2023/03/30 12:15:32;;;;;;;7.88;2.50;;;15.90;43.00;;;;;;4721812;29;115557;-85
2023/03/30 12:18:36;;;;;;;8.43;2.60;;;15.90;43.20;;;;;;4736366;29;117456;-86
2023/03/30 12:21:32;;;;;;;8.43;2.70;;;15.90;43.30;;;;;;4721934;29;115106;-87
2023/03/30 12:24:23;;;;;;;12.82;2.97;;;15.90;43.10;;;;;;4724468;29;116387;-86
2023/03/30 12:26:52;;;;;;;7.32;2.83;;;15.80;43.20;;;;;;4736021;29;115838;-87
2023/03/30 12:29:23;;;;;;;12.02;2.95;;;15.70;43.10;;;;;;4734203;29;118472;-86
2023/03/30 12:32:08;;;;;;;9.30;2.45;;;15.70;43.30;;;;;;4710301;29;117981;-86
2023/03/30 12:34:43;;;;;;;7.85;2.33;;;15.60;43.10;;;;;;4677737;29;114918;-86
2023/03/30 12:37:33;;;;;;;10.27;2.65;;;15.50;43.30;;;;;;4694056;29;115620;-86
2023/03/30 12:40:13;;;;;;;8.63;2.35;;;15.40;43.60;;;;;;4682558;29;118534;-86
2023/03/30 12:42:54;;;;;;;6.55;2.83;;;15.30;43.50;;;;;;4697797;29;115634;-86
2023/03/30 12:45:32;;;;;;;10.27;3.08;;;15.30;43.70;;;;;;4683024;29;114687;-87
2023/03/30 12:48:28;;;;;;;9.90;3.20;;;15.20;44.00;;;;;;4692194;29;116918;-86
2023/03/30 12:51:11;;;;;;;9.73;2.50;;;15.10;44.20;;;;;;4697708;29;116221;-85
2023/03/30 12:54:07;;;;;;;8.55;2.75;;;15.00;44.50;;;;;;4685294;29;115044;-86
2023/03/30 12:57:04;;;;;;;8.48;3.22;;;14.90;44.30;;;;;;4699640;29;114943;-88
2023/03/30 12:59:49;;;;;;;8.55;2.90;;;14.80;44.70;;;;;;4655314;29;118460;-85
2023/03/30 13:03:06;;;;;;;7.53;3.15;;;14.70;44.90;;;;;;4686698;29;119498;-87
2023/03/30 13:05:38;;;;;;;11.00;3.00;;;14.70;45.00;;;;;;4686719;29;114894;-88
2023/03/30 13:08:40;;;;;;;9.13;2.78;;;14.60;45.30;;;;;;4646633;29;114772;-88
2023/03/30 13:11:18;;;;;;;8.35;3.25;;;14.60;45.40;;;;;;4680631;29;114503;-86
2023/03/30 13:13:58;;;;;;;10.45;3.10;;;14.50;45.60;;;;;;4691956;29;114441;-88
2023/03/30 13:16:51;;;;;;;13.20;4.40;;;14.40;46.00;;;;;;4659209;29;114687;-85
2023/03/30 13:19:33;;;;;;;8.38;3.25;;;14.40;46.00;;;;;;4686686;29;114647;-85
2023/03/30 13:22:24;;;;;;;8.57;3.35;;;14.30;46.50;;;;;;4656625;29;117510;-84
2023/03/30 13:25:22;;;;;;;9.32;3.58;;;14.20;47.20;;;;;;4629575;29;116475;-85
2023/03/30 13:27:51;;;;;;;8.63;3.17;;;14.20;48.20;;;;;;4665321;29;114822;-88
2023/03/30 13:30:19;;;;;;;10.25;3.28;;;14.20;48.90;;;;;;4677043;29;114872;-86
2023/03/30 13:33:03;;;;;;;9.07;3.90;;;14.10;49.30;;;;;;4677603;29;118637;-86
2023/03/30 13:35:56;;;;;;;11.98;3.60;;;14.10;50.00;;;;;;4717401;29;117570;-87
2023/03/30 13:39:04;;;;;;;11.55;3.60;;;14.00;50.20;;;;;;4717698;29;116335;-86
2023/03/30 13:41:53;;;;;;;8.85;3.60;;;13.90;49.70;;;;;;4677732;29;114626;-85
2023/03/30 13:44:56;;;;;;;13.73;3.88;;;13.70;50.00;;;;;;4716250;29;115911;-86
2023/03/30 13:47:39;;;;;;;10.43;4.07;;;13.70;50.60;;;;;;4706887;29;115262;-87
2023/03/30 13:50:45;;;;;;;12.10;4.47;;;13.60;51.20;;;;;;4681620;29;116563;-87
2023/03/30 13:53:13;;;;;;;11.82;4.10;;;13.50;51.90;;;;;;4691914;29;114994;-86